CheckWX is a tool to help pilots better visualize weather data.  It is not intended as a substitute for an official pre-flight weather briefing.

16:28:14 UTC

EGGD TAF
Bristol International Airport
Bristol, United Kingdom
TAF EGGD 071105Z 0712/0812 24009KT 9999 SCT020 PROB30 TEMPO 0712/0717 4000 -DZ BKN009 BECMG 0717/0720 20016G26KT BKN009 PROB40 TEMPO 0720/0723 21020G36KT TEMPO 0723/0804 21020G36KT 6000 RA PROB30 TEMPO 0723/0803 2000 +RA BKN004 BECMG 0803/0806 26014KT TEMPO 0803/0809 27017G27KT PROB30 TEMPO 0803/0805 4000 BR BKN004 PROB30 TEMPO 0809/0812 27017G27KT 6000 SHRA

Dec-7@
12:00 UTC

Dec-7 @ 12:00 UTC

Dec-7@
17:00 UTC

Dec-7 @ 17:00 UTC

TAF EGGD 071105Z 0712/0812 24009KT 9999 SCT020
Wind
  • 240° at 9 KTS
Cloud Levels
  • Scattered at 2,000' AGL

Dec-7@
12:00 UTC

Dec-7 @ 12:00 UTC

Dec-7@
17:00 UTC

Dec-7 @ 17:00 UTC

PROB30 TEMPO 0712/0717 4000 -DZ BKN009

Temporary - 30% Likelihood

Temporary - 30% Likelihood during this time.

Conditions
Light Drizzle
Cloud Levels
  • Broken at 900' AGL

Dec-7@
17:00 UTC

Dec-7 @ 17:00 UTC

Dec-8@
03:00 UTC

Dec-8 @ 03:00 UTC

BECMG 0717/0720 20016G26KT BKN009

Becoming

Becoming Conditions expected by Sat, Dec 7, 2019 @ 20:00 UTC

Wind
  • 200° at 16 KTS
  • {Gusting to 26 KTS
Cloud Levels
  • Broken at 900' AGL

Dec-7@
20:00 UTC

Dec-7 @ 20:00 UTC

Dec-7@
23:00 UTC

Dec-7 @ 23:00 UTC

PROB40 TEMPO 0720/0723 21020G36KT

Temporary - 40% Likelihood

Temporary - 40% Likelihood during this time.

Wind
  • 210° at 20 KTS
  • {Gusting to 36 KTS

Dec-7@
23:00 UTC

Dec-7 @ 23:00 UTC

Dec-8@
03:00 UTC

Dec-8 @ 03:00 UTC

PROB30 TEMPO 0723/0803 2000 +RA BKN004

Temporary - 30% Likelihood

Temporary - 30% Likelihood during this time.

Conditions
Heavy Rain
Cloud Levels
  • Broken at 400' AGL

Dec-7@
23:00 UTC

Dec-7 @ 23:00 UTC

Dec-8@
04:00 UTC

Dec-8 @ 04:00 UTC

TEMPO 0723/0804 21020G36KT 6000 RA

Temporary

Temporary Changes expected for less than half the time period

Wind
  • 210° at 20 KTS
  • {Gusting to 36 KTS
Conditions
Rain

Dec-8@
03:00 UTC

Dec-8 @ 03:00 UTC

Dec-8@
05:00 UTC

Dec-8 @ 05:00 UTC

PROB30 TEMPO 0803/0805 4000 BR BKN004

Temporary - 30% Likelihood

Temporary - 30% Likelihood during this time.

Conditions
Mist
Cloud Levels
  • Broken at 400' AGL

Dec-8@
03:00 UTC

Dec-8 @ 03:00 UTC

Dec-8@
09:00 UTC

Dec-8 @ 09:00 UTC

TEMPO 0803/0809 27017G27KT

Temporary

Temporary Changes expected for less than half the time period

Wind
  • 270° at 17 KTS
  • {Gusting to 27 KTS

Dec-8@
03:00 UTC

Dec-8 @ 03:00 UTC

Dec-8@
12:00 UTC

Dec-8 @ 12:00 UTC

BECMG 0803/0806 26014KT

Becoming

Becoming Conditions expected by Sun, Dec 8, 2019 @ 06:00 UTC

Wind
  • 260° at 14 KTS
Cloud Levels
  • Broken at 900' AGL

Dec-8@
09:00 UTC

Dec-8 @ 09:00 UTC

Dec-8@
12:00 UTC

Dec-8 @ 12:00 UTC

PROB30 TEMPO 0809/0812 27017G27KT 6000 SHRA

Temporary - 30% Likelihood

Temporary - 30% Likelihood during this time.

Wind
  • 270° at 17 KTS
  • {Gusting to 27 KTS
Conditions
Rain